createdAt,value
2022-09-26T00:00:31.303Z,1.87
2022-09-26T00:06:33.224Z,1.80
2022-09-26T00:12:35.143Z,2.73
2022-09-26T00:18:37.808Z,3.13
2022-09-26T00:24:39.711Z,2.87
2022-09-26T00:30:42.699Z,2.50
2022-09-26T00:36:44.658Z,3.20
2022-09-26T00:42:46.948Z,2.30
2022-09-26T00:49:13.735Z,2.87
2022-09-26T00:55:21.409Z,3.20
2022-09-26T01:01:23.525Z,2.50
2022-09-26T01:07:28.407Z,2.90
2022-09-26T01:13:34.423Z,2.40
2022-09-26T01:20:21.251Z,2.80
2022-09-26T01:26:55.501Z,2.47
2022-09-26T01:33:34.062Z,3.27
2022-09-26T01:39:49.289Z,2.67
2022-09-26T01:46:00.792Z,3.83
2022-09-26T01:59:36.525Z,4.67
2022-09-26T02:06:09.609Z,3.60
2022-09-26T02:12:39.309Z,3.33
2022-09-26T02:18:51.063Z,3.80
2022-09-26T02:24:53.908Z,3.30
2022-09-26T02:31:01.250Z,4.33
2022-09-26T02:37:05.543Z,6.33
2022-09-26T02:43:39.738Z,5.43
2022-09-26T02:49:59.785Z,6.00
2022-09-26T02:56:39.456Z,5.80
2022-09-26T03:03:20.371Z,6.20
2022-09-26T03:09:24.329Z,4.63
2022-09-26T03:15:27.899Z,4.37
2022-09-26T03:21:32.731Z,4.20
2022-09-26T03:27:47.674Z,3.90
2022-09-26T03:33:49.767Z,3.53
2022-09-26T03:39:51.781Z,4.10
2022-09-26T03:45:58.698Z,4.10
2022-09-26T03:52:00.850Z,3.87
2022-09-26T03:58:03.300Z,4.00
2022-09-26T04:04:05.241Z,3.50
2022-09-26T04:10:08.165Z,3.53
2022-09-26T04:16:11.614Z,4.33
2022-09-26T04:22:13.628Z,3.30
2022-09-26T04:28:15.555Z,3.50
2022-09-26T04:34:17.489Z,4.17
2022-09-26T04:40:19.480Z,3.60
2022-09-26T04:46:29.599Z,3.73
2022-09-26T04:52:32.923Z,4.43
2022-09-26T04:58:35.841Z,4.10
2022-09-26T05:04:37.769Z,3.30
2022-09-26T05:10:40.316Z,2.93
2022-09-26T05:16:42.273Z,4.00
2022-09-26T05:22:44.220Z,3.80
2022-09-26T05:28:55.669Z,2.90
2022-09-26T05:34:57.627Z,3.07
2022-09-26T05:40:59.656Z,2.60
2022-09-26T05:47:01.617Z,2.63
2022-09-26T05:53:04.398Z,2.30
2022-09-26T05:59:06.467Z,2.70
2022-09-26T06:05:09.210Z,2.30
2022-09-26T06:11:17.783Z,2.50
2022-09-26T06:17:20.138Z,2.10
2022-09-26T06:23:22.218Z,3.10
2022-09-26T06:29:24.143Z,2.70
2022-09-26T06:35:26.059Z,2.40
2022-09-26T06:41:28.207Z,2.67
2022-09-26T06:47:30.393Z,2.30
2022-09-26T06:53:34.863Z,2.60
2022-09-26T06:59:36.759Z,2.30
2022-09-26T07:05:39.733Z,2.40
2022-09-26T07:12:09.978Z,2.60
2022-09-26T07:18:06.777Z,2.60
2022-09-26T07:24:46.997Z,2.10
2022-09-26T07:30:49.072Z,2.50
2022-09-26T07:36:52.189Z,2.47
2022-09-26T07:43:20.099Z,2.77
2022-09-26T07:49:47.571Z,2.70
2022-09-26T07:56:10.660Z,3.73
2022-09-26T08:02:32.911Z,2.77
2022-09-26T08:08:36.297Z,2.70
2022-09-26T08:14:41.577Z,2.37
2022-09-26T08:20:46.981Z,2.80
2022-09-26T08:26:48.825Z,2.20
2022-09-26T08:32:59.150Z,2.37
2022-09-26T08:39:01.063Z,2.40
2022-09-26T08:45:47.300Z,2.60
2022-09-26T08:58:29.083Z,2.80
2022-09-26T09:05:06.286Z,3.00
2022-09-26T09:11:38.786Z,2.80
2022-09-26T09:18:53.792Z,2.37
2022-09-26T09:25:04.914Z,2.30
2022-09-26T09:31:13.518Z,3.07
2022-09-26T09:37:34.899Z,3.50
2022-09-26T09:43:51.485Z,3.60
2022-09-26T09:49:54.125Z,3.07
2022-09-26T09:56:39.900Z,2.90
2022-09-26T10:03:05.865Z,2.33
2022-09-26T10:09:40.879Z,2.53
2022-09-26T10:15:56.130Z,2.10
2022-09-26T10:21:59.576Z,1.90
2022-09-26T10:28:02.701Z,1.90
2022-09-26T10:34:30.480Z,1.60
2022-09-26T10:40:47.922Z,1.80
2022-09-26T10:46:53.004Z,1.80
2022-09-26T10:53:03.051Z,1.90
2022-09-26T10:59:09.888Z,1.70
2022-09-26T11:05:34.574Z,1.50
2022-09-26T11:11:40.390Z,1.50
2022-09-26T11:17:48.994Z,1.47
2022-09-26T11:30:48.244Z,1.47
2022-09-26T11:37:13.670Z,1.63
2022-09-26T11:43:45.067Z,2.03
2022-09-26T11:50:01.183Z,1.50
2022-09-26T11:57:08.615Z,1.60
2022-09-26T12:03:47.011Z,1.40
2022-09-26T12:09:49.151Z,1.70
2022-09-26T12:16:08.485Z,1.77
2022-09-26T12:22:46.753Z,1.70
2022-09-26T12:29:37.217Z,1.60
2022-09-26T12:36:06.169Z,1.53
2022-09-26T12:42:25.330Z,1.57
2022-09-26T12:48:42.331Z,1.63
2022-09-26T12:55:00.266Z,1.43
2022-09-26T13:01:44.387Z,1.47
2022-09-26T13:08:31.301Z,1.50
2022-09-26T13:15:12.850Z,1.27
2022-09-26T13:21:21.553Z,1.77
2022-09-26T13:27:36.129Z,1.70
2022-09-26T13:34:04.140Z,3.00
2022-09-26T13:40:45.670Z,2.30
2022-09-26T13:47:45.044Z,2.63
2022-09-26T13:54:22.701Z,2.37
2022-09-26T14:00:30.325Z,1.80
2022-09-26T14:06:36.929Z,2.03
2022-09-26T14:13:21.496Z,1.80
2022-09-26T14:19:46.823Z,2.00
2022-09-26T14:25:55.635Z,1.50
2022-09-26T14:32:05.319Z,1.40
2022-09-26T14:38:20.815Z,1.30
2022-09-26T14:44:23.362Z,1.30
2022-09-26T14:50:34.330Z,1.67
2022-09-26T14:56:44.915Z,1.77
2022-09-26T15:02:50.277Z,1.33
2022-09-26T15:08:54.486Z,1.60
2022-09-26T15:15:27.259Z,1.93
2022-09-26T15:21:43.125Z,1.33
2022-09-26T15:27:49.582Z,1.33
2022-09-26T15:34:13.378Z,1.60
2022-09-26T15:40:26.582Z,1.33
2022-09-26T15:46:29.274Z,1.43
2022-09-26T15:52:35.436Z,1.70
2022-09-26T15:58:40.178Z,1.90
2022-09-26T16:04:42.577Z,1.00
2022-09-26T16:10:57.969Z,1.60
2022-09-26T16:17:25.161Z,1.20
2022-09-26T16:23:27.548Z,0.80
2022-09-26T16:29:35.858Z,1.80
2022-09-26T16:35:46.541Z,1.20
2022-09-26T16:42:02.683Z,1.40
2022-09-26T16:48:05.475Z,1.40
2022-09-26T16:54:21.818Z,1.57
2022-09-26T17:00:49.970Z,1.13
2022-09-26T17:06:54.761Z,1.40
2022-09-26T17:13:02.496Z,1.40
2022-09-26T17:19:04.933Z,2.50
2022-09-26T17:25:12.430Z,1.20
2022-09-26T17:31:21.239Z,1.27
2022-09-26T17:37:23.535Z,1.87
2022-09-26T17:43:26.755Z,2.00
2022-09-26T17:49:33.863Z,1.20
2022-09-26T17:55:36.430Z,1.20
2022-09-26T18:01:42.589Z,1.40
2022-09-26T18:07:45.782Z,1.43
2022-09-26T18:14:19.901Z,1.47
2022-09-26T18:20:33.533Z,1.40
2022-09-26T18:26:47.177Z,1.47
2022-09-26T18:32:53.977Z,1.30
2022-09-26T18:38:59.220Z,1.20
2022-09-26T18:45:38.239Z,1.53
2022-09-26T18:51:41.217Z,1.60
2022-09-26T18:58:02.078Z,1.33
2022-09-26T19:04:34.312Z,1.47
2022-09-26T19:10:36.291Z,1.50
2022-09-26T19:16:45.601Z,2.00
2022-09-26T19:23:12.568Z,3.97
2022-09-26T19:35:39.876Z,1.73
2022-09-26T19:41:42.265Z,1.70
2022-09-26T19:47:48.126Z,2.47
2022-09-26T19:53:50.379Z,1.80
2022-09-26T19:59:52.321Z,1.97
2022-09-26T20:05:54.275Z,1.90
2022-09-26T20:11:56.223Z,1.90
2022-09-26T20:18:00.180Z,1.80
2022-09-26T20:24:02.440Z,1.50
2022-09-26T20:30:48.992Z,1.43
2022-09-26T20:36:51.732Z,1.40
2022-09-26T20:43:03.931Z,1.43
2022-09-26T20:49:14.919Z,1.50
2022-09-26T20:55:19.246Z,1.30
2022-09-26T21:01:22.605Z,1.23
2022-09-26T21:07:25.072Z,1.60
2022-09-26T21:13:27.005Z,1.50
2022-09-26T21:19:30.590Z,1.63
2022-09-26T21:25:32.740Z,1.30
2022-09-26T21:31:36.105Z,1.40
2022-09-26T21:44:25.406Z,1.30
2022-09-26T21:50:28.734Z,1.10
2022-09-26T21:56:37.550Z,1.00
2022-09-26T22:02:41.470Z,1.20
2022-09-26T22:08:43.458Z,1.20
2022-09-26T22:14:45.547Z,1.17
2022-09-26T22:20:54.627Z,1.10
2022-09-26T22:26:56.580Z,1.30
2022-09-26T22:32:58.491Z,1.10
2022-09-26T22:39:00.693Z,1.17
2022-09-26T22:45:02.768Z,1.00
2022-09-26T22:58:12.608Z,1.00
2022-09-26T23:04:14.656Z,1.37
2022-09-26T23:10:17.891Z,1.17
2022-09-26T23:16:23.546Z,1.00
2022-09-26T23:22:25.590Z,1.10
2022-09-26T23:28:28.161Z,1.00
2022-09-26T23:34:30.072Z,1.07
2022-09-26T23:40:32.417Z,1.13
2022-09-26T23:46:34.537Z,1.00
2022-09-26T23:52:36.520Z,1.10
2022-09-26T23:58:38.776Z,1.17
